createdAt,value
2019-02-10T00:01:30.565Z,7.00
2019-02-10T00:03:59.772Z,7.00
2019-02-10T00:06:28.916Z,7.00
2019-02-10T00:08:58.122Z,6.90
2019-02-10T00:11:27.369Z,6.80
2019-02-10T00:13:57.641Z,6.80
2019-02-10T00:16:26.929Z,6.70
2019-02-10T00:18:56.339Z,6.50
2019-02-10T00:21:25.584Z,6.50
2019-02-10T00:23:54.728Z,6.40
2019-02-10T00:26:23.981Z,6.40
2019-02-10T00:28:53.120Z,6.40
2019-02-10T00:31:22.280Z,6.40
2019-02-10T00:33:51.542Z,6.50
2019-02-10T00:36:20.767Z,6.40
2019-02-10T00:38:49.931Z,6.40
2019-02-10T00:41:19.285Z,6.30
2019-02-10T00:43:48.438Z,6.20
2019-02-10T00:46:17.607Z,6.20
2019-02-10T00:48:46.756Z,6.10
2019-02-10T00:51:16.006Z,6.00
2019-02-10T00:53:45.164Z,6.10
2019-02-10T00:56:14.435Z,6.20
2019-02-10T00:58:43.588Z,6.20
2019-02-10T01:01:12.883Z,6.20
2019-02-10T01:03:42.031Z,6.10
2019-02-10T01:06:11.180Z,6.10
2019-02-10T01:08:40.340Z,6.00
2019-02-10T01:11:09.493Z,5.90
2019-02-10T01:13:39.068Z,6.00
2019-02-10T01:16:08.227Z,5.90
2019-02-10T01:18:37.680Z,6.10
2019-02-10T01:21:06.893Z,6.00
2019-02-10T01:23:36.036Z,6.00
2019-02-10T01:26:05.247Z,6.10
2019-02-10T01:28:34.407Z,6.00
2019-02-10T01:31:03.825Z,6.10
2019-02-10T01:33:32.985Z,6.00
2019-02-10T01:36:02.131Z,6.00
2019-02-10T01:38:31.263Z,5.90
2019-02-10T01:41:00.658Z,5.90
2019-02-10T01:43:29.854Z,5.90
2019-02-10T01:45:58.987Z,5.80
2019-02-10T01:48:28.332Z,5.80
2019-02-10T01:50:57.548Z,5.80
2019-02-10T01:53:26.695Z,5.80
2019-02-10T01:55:55.875Z,5.80
2019-02-10T01:58:25.093Z,5.80
2019-02-10T02:00:54.323Z,5.80
2019-02-10T02:03:23.460Z,5.80
2019-02-10T02:05:52.633Z,5.90
2019-02-10T02:08:21.773Z,5.90
2019-02-10T02:10:50.933Z,5.90
2019-02-10T02:13:20.059Z,5.80
2019-02-10T02:15:49.304Z,5.80
2019-02-10T02:18:18.445Z,5.90
2019-02-10T02:20:47.594Z,5.90
2019-02-10T02:23:16.888Z,5.90
2019-02-10T02:25:46.064Z,5.90
2019-02-10T02:28:15.201Z,5.80
2019-02-10T02:30:44.683Z,5.90
2019-02-10T02:33:13.824Z,5.90
2019-02-10T02:35:42.976Z,5.90
2019-02-10T02:38:12.120Z,5.90
2019-02-10T02:40:41.255Z,6.00
2019-02-10T02:43:10.415Z,6.00
2019-02-10T02:45:39.536Z,6.10
2019-02-10T02:48:08.684Z,6.10
2019-02-10T02:50:38.003Z,6.10
2019-02-10T02:53:07.148Z,6.10
2019-02-10T02:55:36.296Z,6.10
2019-02-10T02:58:05.446Z,6.10
2019-02-10T03:00:34.970Z,6.10
2019-02-10T03:03:04.133Z,6.20
2019-02-10T03:05:33.277Z,6.20
2019-02-10T03:08:02.518Z,6.10
2019-02-10T03:10:31.659Z,6.10
2019-02-10T03:13:00.996Z,6.10
2019-02-10T03:15:30.148Z,6.20
2019-02-10T03:17:59.309Z,6.20
2019-02-10T03:20:28.656Z,6.20
2019-02-10T03:22:57.831Z,6.30
2019-02-10T03:25:26.971Z,6.30
2019-02-10T03:27:56.148Z,6.30
2019-02-10T03:30:25.346Z,6.30
2019-02-10T03:32:54.523Z,6.40
2019-02-10T03:35:23.653Z,6.40
2019-02-10T03:37:52.802Z,6.40
2019-02-10T03:40:21.925Z,6.40
2019-02-10T03:42:51.269Z,6.40
2019-02-10T03:45:20.423Z,6.60
2019-02-10T03:47:49.547Z,6.50
2019-02-10T03:50:18.723Z,6.50
2019-02-10T03:52:47.878Z,6.40
2019-02-10T03:55:17.107Z,6.30
2019-02-10T03:57:46.252Z,6.40
2019-02-10T04:00:15.530Z,6.50
2019-02-10T04:02:44.676Z,6.80
2019-02-10T04:05:13.828Z,6.80
2019-02-10T04:07:43.188Z,6.80
2019-02-10T04:10:12.841Z,6.70
2019-02-10T04:12:41.967Z,6.70
2019-02-10T04:15:11.127Z,6.60
2019-02-10T04:17:40.315Z,6.70
2019-02-10T04:20:09.456Z,6.70
2019-02-10T04:22:38.599Z,6.70
2019-02-10T04:25:08.072Z,6.70
2019-02-10T04:27:37.207Z,6.70
2019-02-10T04:30:06.771Z,6.80
2019-02-10T04:32:35.908Z,6.70
2019-02-10T04:35:05.765Z,6.70
2019-02-10T04:37:34.884Z,6.60
2019-02-10T04:40:04.043Z,6.70
2019-02-10T04:42:33.178Z,6.70
2019-02-10T04:45:02.330Z,6.70
2019-02-10T04:47:31.486Z,6.80
2019-02-10T04:50:00.608Z,6.80
2019-02-10T04:52:29.755Z,7.00
2019-02-10T04:54:58.908Z,6.90
2019-02-10T04:57:28.087Z,6.90
2019-02-10T04:59:57.213Z,6.90
2019-02-10T05:02:26.542Z,7.00
2019-02-10T05:04:55.667Z,7.10
2019-02-10T05:07:24.806Z,7.30
2019-02-10T05:09:55.505Z,7.30
2019-02-10T05:12:24.659Z,7.20
2019-02-10T05:14:53.818Z,7.00
2019-02-10T05:17:22.959Z,7.00
2019-02-10T05:19:52.114Z,7.00
2019-02-10T05:22:21.251Z,7.00
2019-02-10T05:24:50.372Z,7.10
2019-02-10T05:27:19.514Z,7.10
2019-02-10T05:29:48.722Z,7.00
2019-02-10T05:32:17.880Z,7.10
2019-02-10T05:34:47.033Z,7.00
2019-02-10T05:37:16.161Z,7.00
2019-02-10T05:39:45.289Z,7.00
2019-02-10T05:42:14.457Z,7.10
2019-02-10T05:44:43.638Z,7.10
2019-02-10T05:47:12.796Z,7.10
2019-02-10T05:49:41.997Z,7.10
2019-02-10T05:52:11.133Z,7.20
2019-02-10T05:54:40.833Z,7.30
2019-02-10T05:57:10.219Z,7.50
2019-02-10T05:59:39.465Z,8.00
2019-02-10T06:02:25.273Z,8.10
2019-02-10T06:04:54.459Z,8.30
2019-02-10T06:07:23.583Z,8.30
2019-02-10T06:09:52.733Z,8.40
2019-02-10T06:12:21.868Z,8.50
2019-02-10T06:14:51.013Z,8.50
2019-02-10T06:17:20.149Z,8.50
2019-02-10T06:19:49.366Z,8.50
2019-02-10T06:22:18.488Z,8.60
2019-02-10T06:24:47.625Z,8.60
2019-02-10T06:27:16.750Z,8.70
2019-02-10T06:29:45.915Z,8.70
2019-02-10T06:32:15.041Z,8.70
2019-02-10T06:34:44.191Z,8.70
2019-02-10T06:37:13.368Z,8.70
2019-02-10T06:39:43.041Z,8.70
2019-02-10T06:42:12.173Z,8.70
2019-02-10T06:44:41.320Z,8.80
2019-02-10T06:47:10.488Z,8.80
2019-02-10T06:49:39.622Z,8.80
2019-02-10T06:52:08.758Z,8.80
2019-02-10T06:54:45.204Z,8.80
2019-02-10T06:57:14.496Z,8.80
2019-02-10T07:00:05.437Z,8.80
2019-02-10T07:03:15.331Z,8.90
2019-02-10T07:05:44.451Z,9.00
2019-02-10T07:08:13.600Z,9.00
2019-02-10T07:10:42.841Z,9.00
2019-02-10T07:13:14.527Z,9.00
2019-02-10T07:16:19.583Z,9.10
2019-02-10T07:19:24.289Z,9.00
2019-02-10T07:21:53.443Z,9.10
2019-02-10T07:24:44.384Z,9.00
2019-02-10T07:27:36.340Z,9.00
2019-02-10T07:30:40.725Z,9.00
2019-02-10T07:33:53.876Z,8.80
2019-02-10T07:36:34.952Z,8.70
2019-02-10T07:39:50.456Z,8.60
2019-02-10T07:42:58.511Z,8.70
2019-02-10T07:45:49.085Z,8.60
2019-02-10T07:48:31.683Z,8.50
2019-02-10T07:51:41.041Z,8.70
2019-02-10T07:54:42.248Z,8.80
2019-02-10T07:57:36.363Z,8.90
2019-02-10T08:00:51.938Z,9.00
2019-02-10T08:03:57.093Z,9.20
2019-02-10T08:07:04.794Z,9.40
2019-02-10T08:10:26.699Z,9.40
2019-02-10T08:13:22.815Z,9.50
2019-02-10T08:15:59.269Z,9.60
2019-02-10T08:19:01.518Z,9.60
2019-02-10T08:22:02.603Z,9.60
2019-02-10T08:25:22.097Z,9.60
2019-02-10T08:28:53.580Z,9.60
2019-02-10T08:31:50.297Z,9.80
2019-02-10T08:34:44.901Z,9.80
2019-02-10T08:38:02.602Z,9.80
2019-02-10T08:40:49.752Z,9.90
2019-02-10T08:43:51.057Z,10.00
2019-02-10T08:46:49.427Z,10.10
2019-02-10T08:50:05.696Z,10.10
2019-02-10T08:52:42.531Z,10.20
2019-02-10T08:55:11.802Z,10.20
2019-02-10T08:57:40.976Z,10.20
2019-02-10T09:00:11.228Z,10.20
2019-02-10T09:02:40.491Z,10.20
2019-02-10T09:05:09.851Z,10.20
2019-02-10T09:07:39.364Z,10.20
2019-02-10T09:10:10.501Z,10.30
2019-02-10T09:12:39.680Z,10.30
2019-02-10T09:15:10.017Z,10.30
2019-02-10T09:17:39.523Z,10.30
2019-02-10T09:20:09.513Z,10.40
2019-02-10T09:22:38.701Z,10.40
2019-02-10T09:25:08.868Z,10.40
2019-02-10T09:27:38.060Z,10.40
2019-02-10T09:30:08.333Z,10.40
2019-02-10T09:32:37.521Z,10.50
2019-02-10T09:35:07.477Z,10.50
2019-02-10T09:37:37.165Z,10.60
2019-02-10T09:40:25.404Z,10.60
2019-02-10T09:42:54.689Z,10.60
2019-02-10T09:45:23.853Z,10.60
2019-02-10T09:47:53.033Z,10.70
2019-02-10T09:50:22.316Z,10.70
2019-02-10T09:52:51.725Z,10.70
2019-02-10T09:55:21.257Z,10.80
2019-02-10T09:57:50.500Z,10.90
2019-02-10T10:00:19.701Z,10.90
2019-02-10T10:02:49.085Z,10.90
2019-02-10T10:05:19.618Z,10.90
2019-02-10T10:07:48.929Z,11.00
2019-02-10T10:10:18.110Z,11.10
2019-02-10T10:13:06.672Z,11.20
2019-02-10T10:15:35.851Z,11.30
2019-02-10T10:18:05.132Z,11.60
2019-02-10T10:20:34.323Z,11.70
2019-02-10T10:23:03.593Z,12.20
2019-02-10T10:25:32.897Z,12.30
2019-02-10T10:28:02.061Z,12.50
2019-02-10T10:30:31.412Z,12.40
2019-02-10T10:33:00.967Z,12.30
2019-02-10T10:35:30.228Z,12.20
2019-02-10T10:37:59.394Z,12.10
2019-02-10T10:40:30.543Z,12.00
2019-02-10T10:42:59.725Z,11.90
2019-02-10T10:45:29.118Z,11.90
2019-02-10T10:47:58.296Z,11.90
2019-02-10T10:50:27.512Z,11.90
2019-02-10T10:52:56.644Z,11.90
2019-02-10T10:55:25.914Z,12.00
2019-02-10T10:57:55.344Z,12.00
2019-02-10T11:00:24.601Z,12.00
2019-02-10T11:02:53.898Z,12.10
2019-02-10T11:05:23.245Z,12.10
2019-02-10T11:07:52.538Z,12.20
2019-02-10T11:10:21.854Z,12.30
2019-02-10T11:12:50.988Z,12.30
2019-02-10T11:15:21.404Z,12.50
2019-02-10T11:17:50.559Z,12.50
2019-02-10T11:20:19.884Z,12.60
2019-02-10T11:22:49.040Z,12.60
2019-02-10T11:25:19.808Z,12.60
2019-02-10T11:27:48.963Z,12.60
2019-02-10T11:30:18.168Z,12.50
2019-02-10T11:33:06.406Z,12.40
2019-02-10T11:35:35.608Z,12.40
2019-02-10T11:38:05.006Z,12.70
2019-02-10T11:40:34.204Z,15.30
2019-02-10T11:43:03.436Z,16.30
2019-02-10T11:45:32.681Z,16.70
2019-02-10T11:48:01.880Z,15.90
2019-02-10T11:50:31.131Z,15.00
2019-02-10T11:53:00.377Z,14.40
2019-02-10T11:55:29.540Z,14.90
2019-02-10T11:57:58.865Z,19.30
2019-02-10T12:00:28.056Z,19.80
2019-02-10T12:02:57.242Z,17.70
2019-02-10T12:05:26.484Z,16.20
2019-02-10T12:07:55.755Z,15.10
2019-02-10T12:10:25.328Z,14.60
2019-02-10T12:12:54.655Z,14.40
2019-02-10T12:15:23.821Z,14.40
2019-02-10T12:17:52.980Z,14.20
2019-02-10T12:20:22.213Z,14.10
2019-02-10T12:22:51.641Z,14.10
2019-02-10T12:25:20.773Z,14.30
2019-02-10T12:27:50.028Z,14.30
2019-02-10T12:30:19.286Z,14.30
2019-02-10T12:32:48.471Z,14.30
2019-02-10T12:35:17.619Z,14.20
2019-02-10T12:37:46.781Z,14.30
2019-02-10T12:40:16.137Z,14.20
2019-02-10T12:42:45.297Z,14.20
2019-02-10T12:45:14.721Z,14.10
2019-02-10T12:47:44.016Z,14.00
2019-02-10T12:50:13.401Z,14.10
2019-02-10T12:52:42.658Z,14.00
2019-02-10T12:55:11.873Z,14.00
2019-02-10T12:57:41.132Z,14.00
2019-02-10T13:00:13.432Z,13.90
2019-02-10T13:02:42.776Z,13.80
2019-02-10T13:05:12.470Z,13.70
2019-02-10T13:07:41.657Z,13.70
2019-02-10T13:10:13.066Z,13.70
2019-02-10T13:12:42.315Z,13.60
2019-02-10T13:15:11.585Z,13.60
2019-02-10T13:17:40.834Z,13.50
2019-02-10T13:20:10.224Z,13.50
2019-02-10T13:22:39.630Z,13.50
2019-02-10T13:25:08.864Z,13.30
2019-02-10T13:27:38.323Z,13.00
2019-02-10T13:30:08.789Z,12.90
2019-02-10T13:32:37.985Z,12.70
2019-02-10T13:35:07.383Z,12.60
2019-02-10T13:37:36.582Z,12.50
2019-02-10T13:40:16.258Z,12.30
2019-02-10T13:42:39.536Z,12.20
2019-02-10T13:45:09.392Z,12.10
2019-02-10T13:47:38.657Z,12.00
2019-02-10T13:50:09.584Z,11.90
2019-02-10T13:52:38.842Z,11.80
2019-02-10T13:55:09.284Z,11.70
2019-02-10T13:57:38.714Z,11.60
2019-02-10T14:00:11.477Z,11.50
2019-02-10T14:02:40.852Z,11.50
2019-02-10T14:05:10.641Z,11.40
2019-02-10T14:07:39.927Z,11.60
2019-02-10T14:10:11.157Z,11.50
2019-02-10T14:12:40.752Z,11.40
2019-02-10T14:15:12.064Z,11.40
2019-02-10T14:17:41.262Z,11.30
2019-02-10T14:20:12.795Z,11.20
2019-02-10T14:22:42.000Z,11.10
2019-02-10T14:25:11.177Z,11.10
2019-02-10T14:27:40.382Z,11.10
2019-02-10T14:30:11.232Z,11.10
2019-02-10T14:32:40.496Z,11.00
2019-02-10T14:35:09.704Z,11.00
2019-02-10T14:37:38.967Z,10.90
2019-02-10T14:40:08.508Z,11.00
2019-02-10T14:42:37.749Z,10.80
2019-02-10T14:45:07.604Z,10.80
2019-02-10T14:47:36.819Z,10.80
2019-02-10T14:50:07.564Z,10.80
2019-02-10T14:52:36.828Z,10.80
2019-02-10T14:55:06.373Z,10.80
2019-02-10T14:57:35.635Z,10.80
2019-02-10T15:00:06.120Z,10.70
2019-02-10T15:02:35.325Z,10.70
2019-02-10T15:05:06.258Z,10.60
2019-02-10T15:07:35.599Z,10.50
2019-02-10T15:10:05.802Z,10.60
2019-02-10T15:12:34.972Z,10.60
2019-02-10T15:15:04.590Z,10.50
2019-02-10T15:17:33.945Z,10.50
2019-02-10T15:20:03.197Z,10.50
2019-02-10T15:22:32.371Z,10.50
2019-02-10T15:25:01.778Z,10.40
2019-02-10T15:27:31.261Z,10.40
2019-02-10T15:30:00.495Z,10.40
2019-02-10T15:32:29.643Z,10.40
2019-02-10T15:34:59.157Z,10.30
2019-02-10T15:37:28.681Z,10.40
2019-02-10T15:39:58.428Z,10.40
2019-02-10T15:42:27.878Z,10.30
2019-02-10T15:44:57.207Z,10.30
2019-02-10T15:47:26.386Z,10.20
2019-02-10T15:49:55.738Z,10.20
2019-02-10T15:52:24.947Z,10.10
2019-02-10T15:54:54.116Z,10.10
2019-02-10T15:57:23.576Z,10.10
2019-02-10T15:59:53.440Z,10.00
2019-02-10T16:02:22.683Z,9.90
2019-02-10T16:04:52.947Z,9.80
2019-02-10T16:07:22.176Z,9.70
2019-02-10T16:09:51.444Z,9.60
2019-02-10T16:12:20.794Z,9.60
2019-02-10T16:14:49.960Z,9.60
2019-02-10T16:17:19.873Z,9.70
2019-02-10T16:19:49.048Z,9.60
2019-02-10T16:22:18.837Z,9.60
2019-02-10T16:24:48.157Z,9.60
2019-02-10T16:27:17.401Z,9.60
2019-02-10T16:29:46.775Z,9.50
2019-02-10T16:32:16.228Z,9.60
2019-02-10T16:34:45.365Z,9.50
2019-02-10T16:37:14.987Z,9.50
2019-02-10T16:39:44.184Z,9.40
2019-02-10T16:42:13.921Z,9.30
2019-02-10T16:44:43.232Z,9.30
2019-02-10T16:47:12.787Z,9.40
2019-02-10T16:49:42.127Z,9.30
2019-02-10T16:52:11.324Z,9.20
2019-02-10T16:54:40.465Z,9.10
2019-02-10T16:57:09.826Z,9.00
2019-02-10T16:59:38.995Z,9.00
2019-02-10T17:02:08.377Z,9.00
2019-02-10T17:04:37.596Z,9.10
2019-02-10T17:07:06.814Z,9.20
2019-02-10T17:09:36.081Z,9.20
2019-02-10T17:12:05.339Z,9.30
2019-02-10T17:14:34.621Z,9.10
2019-02-10T17:17:03.882Z,9.00
2019-02-10T17:19:33.060Z,8.90
2019-02-10T17:22:02.529Z,8.60
2019-02-10T17:24:31.896Z,8.50
2019-02-10T17:27:01.150Z,8.20
2019-02-10T17:29:31.391Z,8.00
2019-02-10T17:32:01.023Z,8.00
2019-02-10T17:34:30.418Z,7.90
2019-02-10T17:36:59.736Z,7.90
2019-02-10T17:39:28.925Z,7.70
2019-02-10T17:41:58.187Z,7.70
2019-02-10T17:44:27.519Z,7.40
2019-02-10T17:46:56.945Z,7.40
2019-02-10T17:49:26.153Z,7.30
2019-02-10T17:51:55.343Z,7.20
2019-02-10T17:54:24.750Z,7.20
2019-02-10T17:56:54.416Z,7.20
2019-02-10T17:59:29.949Z,6.90
2019-02-10T18:01:59.251Z,6.70
2019-02-10T18:04:28.799Z,6.70
2019-02-10T18:06:58.113Z,6.80
2019-02-10T18:09:27.322Z,6.60
2019-02-10T18:11:56.641Z,6.80
2019-02-10T18:15:01.496Z,6.90
2019-02-10T18:17:51.503Z,6.90
2019-02-10T18:20:30.527Z,7.00
2019-02-10T18:23:14.232Z,6.90
2019-02-10T18:26:02.298Z,7.00
2019-02-10T18:28:49.304Z,7.10
2019-02-10T18:31:36.660Z,7.10
2019-02-10T18:34:25.598Z,7.10
2019-02-10T18:37:19.646Z,7.10
2019-02-10T18:39:56.371Z,7.10
2019-02-10T18:42:42.620Z,7.10
2019-02-10T18:45:22.501Z,7.10
2019-02-10T18:48:13.816Z,7.00
2019-02-10T18:51:04.962Z,6.90
2019-02-10T18:53:51.748Z,7.00
2019-02-10T18:56:38.913Z,6.90
2019-02-10T18:59:21.994Z,7.00
2019-02-10T19:02:18.649Z,6.90
2019-02-10T19:05:06.932Z,6.80
2019-02-10T19:07:54.195Z,6.90
2019-02-10T19:10:45.385Z,6.80
2019-02-10T19:13:33.909Z,6.90
2019-02-10T19:16:11.781Z,6.80
2019-02-10T19:19:00.031Z,6.90
2019-02-10T19:21:47.139Z,6.70
2019-02-10T19:24:41.465Z,6.80
2019-02-10T19:27:39.062Z,6.80
2019-02-10T19:30:40.948Z,6.80
2019-02-10T19:33:44.388Z,6.60
2019-02-10T19:36:31.474Z,6.60
2019-02-10T19:39:38.337Z,6.70
2019-02-10T19:42:19.585Z,6.70
2019-02-10T19:45:16.659Z,6.60
2019-02-10T19:48:23.001Z,6.80
2019-02-10T19:51:10.708Z,6.70
2019-02-10T19:53:53.397Z,6.70
2019-02-10T19:56:34.861Z,6.70
2019-02-10T19:59:21.963Z,6.70
2019-02-10T20:02:00.957Z,6.80
2019-02-10T20:04:49.127Z,6.60
2019-02-10T20:07:29.417Z,6.60
2019-02-10T20:10:23.653Z,6.50
2019-02-10T20:13:10.819Z,6.60
2019-02-10T20:16:03.720Z,6.60
2019-02-10T20:18:51.909Z,6.60
2019-02-10T20:21:28.707Z,6.60
2019-02-10T20:24:08.710Z,6.60
2019-02-10T20:26:51.354Z,6.60
2019-02-10T20:29:54.963Z,6.60
2019-02-10T20:32:31.527Z,6.70
2019-02-10T20:35:35.350Z,6.60
2019-02-10T20:38:20.777Z,6.60
2019-02-10T20:40:55.847Z,6.70
2019-02-10T20:43:52.848Z,6.80
2019-02-10T20:46:59.244Z,6.60
2019-02-10T20:49:34.253Z,6.70
2019-02-10T20:52:23.554Z,6.70
2019-02-10T20:55:17.525Z,6.60
2019-02-10T20:58:11.661Z,6.60
2019-02-10T21:00:58.569Z,6.50
2019-02-10T21:03:57.599Z,6.40
2019-02-10T21:06:39.552Z,6.40
2019-02-10T21:09:27.508Z,6.40
2019-02-10T21:12:06.092Z,6.30
2019-02-10T21:15:00.307Z,6.40
2019-02-10T21:17:48.526Z,6.30
2019-02-10T21:20:36.714Z,6.30
2019-02-10T21:23:23.641Z,6.20
2019-02-10T21:26:02.211Z,6.10
2019-02-10T21:28:54.277Z,6.20
2019-02-10T21:32:01.879Z,6.10
2019-02-10T21:34:52.928Z,6.00
2019-02-10T21:37:48.985Z,5.90
2019-02-10T21:40:30.429Z,6.00
2019-02-10T21:43:11.432Z,6.10
2019-02-10T21:45:52.400Z,5.90
2019-02-10T21:48:25.368Z,5.80
2019-02-10T21:50:54.539Z,5.60
2019-02-10T21:53:23.913Z,5.80
2019-02-10T21:55:53.444Z,5.80
2019-02-10T21:58:22.692Z,5.90
2019-02-10T22:00:51.838Z,5.90
2019-02-10T22:03:20.977Z,6.00
2019-02-10T22:05:50.144Z,5.90
2019-02-10T22:08:19.398Z,5.90
2019-02-10T22:10:48.696Z,5.80
2019-02-10T22:13:18.006Z,5.90
2019-02-10T22:15:47.228Z,5.80
2019-02-10T22:18:16.433Z,5.80
2019-02-10T22:20:45.727Z,5.60
2019-02-10T22:23:14.973Z,5.80
2019-02-10T22:25:44.143Z,5.80
2019-02-10T22:28:13.283Z,5.90
2019-02-10T22:30:42.464Z,5.90
2019-02-10T22:33:11.792Z,5.90
2019-02-10T22:35:41.017Z,5.90
2019-02-10T22:38:10.231Z,5.90
2019-02-10T22:40:39.401Z,5.90
2019-02-10T22:43:08.562Z,5.80
2019-02-10T22:45:37.691Z,5.60
2019-02-10T22:48:06.937Z,5.80
2019-02-10T22:50:55.165Z,5.70
2019-02-10T22:53:24.327Z,5.80
2019-02-10T22:55:53.589Z,5.80
2019-02-10T22:58:22.764Z,5.80
2019-02-10T23:00:59.507Z,5.80
2019-02-10T23:03:28.672Z,5.80
2019-02-10T23:05:57.812Z,5.80
2019-02-10T23:08:26.981Z,5.80
2019-02-10T23:10:56.836Z,5.80
2019-02-10T23:13:25.997Z,5.70
2019-02-10T23:15:55.134Z,5.80
2019-02-10T23:18:24.659Z,5.80
2019-02-10T23:20:53.797Z,5.70
2019-02-10T23:23:23.069Z,5.60
2019-02-10T23:25:52.280Z,5.80
2019-02-10T23:28:21.451Z,5.70
2019-02-10T23:30:50.713Z,5.60
2019-02-10T23:33:19.861Z,5.50
2019-02-10T23:35:48.990Z,5.50
2019-02-10T23:38:18.232Z,5.40
2019-02-10T23:40:47.400Z,5.40
2019-02-10T23:43:16.552Z,5.50
2019-02-10T23:45:45.760Z,5.60
2019-02-10T23:48:14.904Z,5.40
2019-02-10T23:50:44.107Z,5.40
2019-02-10T23:53:13.244Z,5.30
2019-02-10T23:55:42.395Z,5.30
2019-02-10T23:58:11.690Z,5.50
